createdAt,value
2023-01-15T00:01:54.796Z,13.90
2023-01-15T00:04:23.097Z,12.50
2023-01-15T00:06:51.421Z,11.80
2023-01-15T00:09:19.695Z,11.60
2023-01-15T00:11:47.981Z,10.80
2023-01-15T00:14:17.616Z,9.40
2023-01-15T00:16:45.977Z,11.07
2023-01-15T00:19:14.647Z,9.83
2023-01-15T00:21:43.244Z,10.00
2023-01-15T00:24:28.679Z,10.17
2023-01-15T00:27:14.621Z,12.43
2023-01-15T00:29:44.286Z,12.83
2023-01-15T00:32:12.668Z,12.07
2023-01-15T00:34:40.937Z,11.40
2023-01-15T00:37:09.180Z,9.07
2023-01-15T00:39:37.478Z,11.73
2023-01-15T00:42:06.166Z,10.20
2023-01-15T00:44:34.663Z,10.73
2023-01-15T00:47:04.417Z,9.53
2023-01-15T00:49:32.657Z,11.03
2023-01-15T00:52:00.908Z,12.53
2023-01-15T00:54:29.284Z,12.43
2023-01-15T00:56:57.598Z,10.90
2023-01-15T00:59:26.036Z,10.17
2023-01-15T01:01:54.406Z,11.47
2023-01-15T01:04:24.145Z,10.50
2023-01-15T01:06:52.816Z,11.07
2023-01-15T01:09:21.081Z,11.17
2023-01-15T01:11:51.050Z,9.57
2023-01-15T01:14:19.292Z,12.30
2023-01-15T01:16:47.696Z,11.97
2023-01-15T01:19:18.471Z,11.10
2023-01-15T01:21:49.428Z,10.13
2023-01-15T01:24:20.262Z,10.40
2023-01-15T01:26:49.610Z,10.90
2023-01-15T01:29:21.184Z,11.57
2023-01-15T01:31:51.402Z,10.83
2023-01-15T01:34:20.146Z,10.33
2023-01-15T01:36:49.809Z,10.20
2023-01-15T01:39:20.317Z,10.20
2023-01-15T01:41:49.278Z,10.33
2023-01-15T01:44:55.197Z,9.70
2023-01-15T01:47:26.715Z,12.03
2023-01-15T01:49:58.814Z,11.37
2023-01-15T01:52:31.761Z,9.97
2023-01-15T01:55:01.324Z,10.57
2023-01-15T01:57:29.869Z,10.83
2023-01-15T02:00:00.161Z,13.33
2023-01-15T02:02:29.121Z,16.20
2023-01-15T02:04:57.472Z,15.70
2023-01-15T02:07:26.742Z,16.93
2023-01-15T02:09:56.458Z,16.20
2023-01-15T02:12:29.593Z,16.73
2023-01-15T02:15:04.694Z,18.00
2023-01-15T02:17:37.391Z,17.00
2023-01-15T02:20:28.958Z,17.83
2023-01-15T02:23:22.085Z,17.43
2023-01-15T02:26:09.662Z,18.03
2023-01-15T02:28:41.800Z,20.20
2023-01-15T02:31:15.217Z,17.33
2023-01-15T02:33:49.215Z,17.97
2023-01-15T02:36:21.464Z,16.83
2023-01-15T02:38:53.088Z,19.23
2023-01-15T02:41:25.978Z,17.87
2023-01-15T02:43:58.633Z,18.43
2023-01-15T02:46:30.821Z,17.30
2023-01-15T02:49:01.060Z,16.77
2023-01-15T02:51:34.205Z,16.20
2023-01-15T02:54:06.117Z,19.23
2023-01-15T02:56:36.941Z,16.77
2023-01-15T02:59:09.266Z,17.23
2023-01-15T03:01:43.036Z,19.10
2023-01-15T03:04:17.028Z,18.17
2023-01-15T03:06:51.340Z,17.07
2023-01-15T03:09:20.707Z,16.60
2023-01-15T03:11:54.581Z,18.63
2023-01-15T03:14:30.560Z,17.20
2023-01-15T03:17:03.809Z,16.67
2023-01-15T03:19:40.344Z,17.83
2023-01-15T03:22:12.579Z,16.27
2023-01-15T03:24:43.913Z,15.80
2023-01-15T03:27:12.528Z,16.63
2023-01-15T03:29:46.304Z,16.93
2023-01-15T03:32:14.953Z,16.67
2023-01-15T03:34:51.591Z,16.20
2023-01-15T03:37:21.961Z,16.03
2023-01-15T03:39:50.639Z,15.87
2023-01-15T03:42:28.092Z,16.50
2023-01-15T03:45:05.136Z,16.20
2023-01-15T03:47:43.841Z,15.87
2023-01-15T03:50:17.654Z,17.50
2023-01-15T03:52:49.490Z,17.53
2023-01-15T03:55:22.117Z,17.50
2023-01-15T03:57:52.732Z,16.70
2023-01-15T04:00:26.980Z,18.27
2023-01-15T04:02:57.759Z,17.17
2023-01-15T04:05:27.633Z,16.70
2023-01-15T04:07:58.163Z,16.00
2023-01-15T04:10:26.629Z,17.17
2023-01-15T04:12:55.136Z,15.87
2023-01-15T04:15:24.944Z,16.17
2023-01-15T04:17:53.223Z,16.60
2023-01-15T04:20:21.752Z,15.87
2023-01-15T04:22:50.071Z,17.47
2023-01-15T04:25:18.642Z,16.53
2023-01-15T04:27:46.896Z,15.93
2023-01-15T04:30:17.803Z,17.03
2023-01-15T04:32:50.048Z,16.57
2023-01-15T04:35:18.684Z,16.00
2023-01-15T04:37:47.201Z,16.03
2023-01-15T04:40:36.633Z,16.83
2023-01-15T04:43:21.942Z,15.87
2023-01-15T04:45:50.274Z,16.13
2023-01-15T04:48:20.022Z,16.40
2023-01-15T04:50:48.288Z,16.27
2023-01-15T04:53:17.158Z,15.60
2023-01-15T04:55:45.395Z,15.17
2023-01-15T04:58:13.693Z,14.57
2023-01-15T05:00:42.447Z,16.03
2023-01-15T05:03:10.781Z,17.60
2023-01-15T05:05:40.433Z,18.90
2023-01-15T05:08:08.736Z,19.07
2023-01-15T05:10:36.988Z,19.17
2023-01-15T05:13:05.571Z,21.73
2023-01-15T05:15:33.906Z,24.53
2023-01-15T05:18:02.206Z,24.83
2023-01-15T05:20:30.514Z,24.67
2023-01-15T05:23:00.157Z,25.27
2023-01-15T05:25:28.403Z,25.00
2023-01-15T05:27:56.661Z,24.50
2023-01-15T05:30:24.984Z,26.43
2023-01-15T05:32:53.306Z,28.10
2023-01-15T05:35:22.108Z,29.27
2023-01-15T05:37:50.350Z,33.43
2023-01-15T05:40:20.418Z,57.03
2023-01-15T05:42:48.761Z,78.27
2023-01-15T05:45:17.315Z,86.10
2023-01-15T05:47:45.624Z,80.00
2023-01-15T05:50:14.303Z,71.67
2023-01-15T05:52:42.575Z,62.10
2023-01-15T05:55:11.575Z,50.23
2023-01-15T05:57:41.219Z,44.73
2023-01-15T06:00:11.476Z,48.13
2023-01-15T06:02:39.858Z,55.40
2023-01-15T06:05:08.990Z,61.27
2023-01-15T06:07:37.298Z,60.27
2023-01-15T06:10:06.333Z,60.27
2023-01-15T06:12:34.877Z,56.67
2023-01-15T06:15:04.661Z,50.97
2023-01-15T06:17:33.009Z,49.37
2023-01-15T06:20:01.396Z,48.57
2023-01-15T06:22:29.963Z,45.33
2023-01-15T06:24:58.321Z,49.07
2023-01-15T06:27:26.608Z,51.47
2023-01-15T06:29:55.019Z,48.90
2023-01-15T06:32:24.703Z,47.47
2023-01-15T06:34:52.937Z,45.43
2023-01-15T06:37:21.399Z,46.37
2023-01-15T06:39:49.712Z,45.13
2023-01-15T06:42:35.702Z,42.93
2023-01-15T06:45:21.940Z,43.40
2023-01-15T06:47:51.704Z,42.90
2023-01-15T06:50:20.524Z,42.70
2023-01-15T06:52:48.946Z,40.77
2023-01-15T06:55:18.660Z,40.87
2023-01-15T06:57:47.047Z,40.90
2023-01-15T07:00:16.543Z,38.07
2023-01-15T07:02:44.889Z,35.03
2023-01-15T07:05:14.706Z,34.80
2023-01-15T07:07:43.037Z,36.13
2023-01-15T07:10:12.690Z,34.23
2023-01-15T07:12:40.922Z,33.47
2023-01-15T07:15:10.150Z,29.93
2023-01-15T07:17:38.464Z,25.90
2023-01-15T07:20:08.280Z,24.03
2023-01-15T07:22:37.968Z,23.53
2023-01-15T07:25:07.422Z,22.20
2023-01-15T07:27:35.897Z,21.73
2023-01-15T07:30:04.443Z,24.17
2023-01-15T07:32:32.839Z,24.27
2023-01-15T07:35:01.126Z,24.03
2023-01-15T07:37:29.371Z,22.20
2023-01-15T07:39:59.156Z,22.73
2023-01-15T07:42:44.634Z,24.17
2023-01-15T07:45:30.548Z,24.27
2023-01-15T07:48:16.311Z,25.07
2023-01-15T07:50:44.590Z,26.73
2023-01-15T07:53:12.868Z,30.80
2023-01-15T07:55:42.516Z,28.87
2023-01-15T07:58:10.839Z,29.20
2023-01-15T08:00:41.218Z,29.23
2023-01-15T08:03:10.234Z,29.93
2023-01-15T08:05:38.487Z,28.23
2023-01-15T08:08:07.294Z,27.03
2023-01-15T08:10:56.735Z,26.30
2023-01-15T08:13:43.904Z,26.00
2023-01-15T08:16:12.410Z,23.93
2023-01-15T08:18:40.992Z,23.07
2023-01-15T08:21:15.426Z,22.70
2023-01-15T08:23:46.349Z,22.27
2023-01-15T08:26:15.054Z,19.53
2023-01-15T08:28:44.785Z,18.63
2023-01-15T08:31:13.105Z,17.47
2023-01-15T08:33:41.413Z,23.37
2023-01-15T08:36:10.163Z,38.47
2023-01-15T08:38:38.420Z,39.80
2023-01-15T08:41:06.967Z,39.93
2023-01-15T08:43:35.236Z,41.37
2023-01-15T08:46:06.657Z,36.67
2023-01-15T08:48:35.764Z,34.73
2023-01-15T08:51:06.385Z,36.73
2023-01-15T08:53:34.679Z,36.30
2023-01-15T08:56:03.091Z,34.80
2023-01-15T08:58:32.116Z,31.30
2023-01-15T09:01:08.038Z,29.43
2023-01-15T09:03:37.144Z,29.30
2023-01-15T09:06:06.766Z,27.23
2023-01-15T09:08:35.244Z,26.10
2023-01-15T09:11:05.627Z,29.07
2023-01-15T09:13:34.364Z,27.70
2023-01-15T09:16:03.736Z,27.43
2023-01-15T09:18:33.624Z,27.57
2023-01-15T09:21:02.292Z,29.23
2023-01-15T09:23:30.714Z,31.17
2023-01-15T09:26:01.036Z,28.67
2023-01-15T09:28:30.293Z,27.63
2023-01-15T09:30:58.671Z,26.23
2023-01-15T09:33:26.997Z,24.80
2023-01-15T09:35:56.713Z,27.60
2023-01-15T09:38:25.014Z,26.40
2023-01-15T09:40:56.789Z,26.10
2023-01-15T09:43:49.957Z,26.17
2023-01-15T09:46:24.543Z,34.23
2023-01-15T09:49:04.609Z,33.50
2023-01-15T09:51:40.239Z,32.73
2023-01-15T09:54:21.829Z,31.37
2023-01-15T09:56:50.675Z,27.63
2023-01-15T09:59:34.965Z,26.57
2023-01-15T10:02:14.099Z,23.77
2023-01-15T10:04:47.306Z,22.80
2023-01-15T10:07:24.065Z,25.60
2023-01-15T10:10:00.482Z,32.83
2023-01-15T10:12:37.067Z,41.47
2023-01-15T10:15:19.892Z,38.67
2023-01-15T10:17:50.027Z,37.10
2023-01-15T10:20:26.591Z,36.30
2023-01-15T10:23:31.425Z,36.00
2023-01-15T10:26:06.833Z,32.13
2023-01-15T10:28:52.980Z,29.83
2023-01-15T10:31:24.663Z,30.63
2023-01-15T10:34:05.491Z,30.20
2023-01-15T10:36:37.837Z,29.90
2023-01-15T10:39:21.306Z,28.20
2023-01-15T10:42:08.941Z,26.90
2023-01-15T10:44:47.782Z,28.00
2023-01-15T10:47:20.166Z,27.57
2023-01-15T10:49:50.534Z,27.63
2023-01-15T10:52:26.501Z,27.10
2023-01-15T10:55:04.948Z,25.43
2023-01-15T10:57:43.869Z,24.83
2023-01-15T11:00:13.296Z,23.97
2023-01-15T11:02:44.768Z,23.90
2023-01-15T11:05:17.429Z,23.53
2023-01-15T11:08:10.513Z,25.43
2023-01-15T11:10:36.954Z,40.47
2023-01-15T11:13:38.692Z,53.57
2023-01-15T11:16:40.009Z,56.90
2023-01-15T11:19:35.944Z,49.77
2023-01-15T11:22:09.816Z,44.83
2023-01-15T11:24:39.743Z,39.90
2023-01-15T11:27:15.206Z,35.17
2023-01-15T11:29:46.628Z,28.53
2023-01-15T11:32:26.324Z,25.60
2023-01-15T11:34:55.806Z,23.90
2023-01-15T11:37:24.745Z,36.60
2023-01-15T11:39:57.711Z,34.00
2023-01-15T11:42:45.611Z,35.03
2023-01-15T11:45:46.793Z,40.93
2023-01-15T11:48:35.666Z,43.97
2023-01-15T11:51:09.514Z,43.87
2023-01-15T11:53:43.400Z,39.10
2023-01-15T11:56:16.379Z,29.70
2023-01-15T11:58:48.713Z,23.30
2023-01-15T12:01:25.138Z,20.87
2023-01-15T12:03:54.153Z,19.63
2023-01-15T12:06:23.692Z,23.60
2023-01-15T12:08:54.004Z,28.20
2023-01-15T12:11:49.272Z,24.20
2023-01-15T12:14:46.981Z,19.10
2023-01-15T12:17:30.978Z,16.20
2023-01-15T12:20:09.270Z,15.13
2023-01-15T12:22:55.460Z,16.07
2023-01-15T12:25:42.981Z,15.73
2023-01-15T12:28:16.277Z,15.83
2023-01-15T12:30:56.286Z,15.27
2023-01-15T12:33:43.368Z,16.17
2023-01-15T12:36:17.273Z,14.10
2023-01-15T12:38:53.063Z,13.17
2023-01-15T12:41:26.481Z,13.43
2023-01-15T12:44:17.153Z,12.40
2023-01-15T12:46:47.808Z,12.93
2023-01-15T12:49:32.432Z,12.20
2023-01-15T12:52:06.474Z,12.20
2023-01-15T12:54:40.738Z,12.37
2023-01-15T12:57:17.391Z,12.00
2023-01-15T12:59:54.834Z,15.33
2023-01-15T13:02:33.566Z,15.63
2023-01-15T13:05:13.226Z,15.47
2023-01-15T13:07:45.807Z,15.30
2023-01-15T13:10:20.165Z,16.63
2023-01-15T13:12:48.748Z,17.40
2023-01-15T13:15:19.225Z,20.07
2023-01-15T13:18:02.182Z,19.10
2023-01-15T13:20:40.999Z,21.17
2023-01-15T13:23:30.921Z,20.87
2023-01-15T13:26:14.192Z,21.70
2023-01-15T13:28:58.847Z,23.60
2023-01-15T13:32:02.942Z,24.17
2023-01-15T13:34:39.834Z,25.60
2023-01-15T13:37:20.330Z,26.53
2023-01-15T13:39:50.609Z,23.93
2023-01-15T13:42:34.524Z,24.60
2023-01-15T13:45:26.607Z,28.80
2023-01-15T13:47:59.519Z,26.37
2023-01-15T13:50:33.162Z,25.63
2023-01-15T13:53:05.098Z,27.20
2023-01-15T13:55:36.265Z,32.20
2023-01-15T13:58:04.589Z,33.93
2023-01-15T14:00:36.196Z,34.97
2023-01-15T14:03:25.604Z,36.73
2023-01-15T14:05:59.215Z,37.00
2023-01-15T14:08:30.521Z,33.93
2023-01-15T14:11:01.596Z,33.83
2023-01-15T14:13:52.767Z,34.83
2023-01-15T14:16:34.562Z,35.27
2023-01-15T14:19:42.240Z,33.37
2023-01-15T14:22:39.250Z,28.50
2023-01-15T14:25:28.694Z,28.20
2023-01-15T14:28:14.183Z,33.77
2023-01-15T14:31:06.243Z,36.50
2023-01-15T14:33:46.286Z,39.93
2023-01-15T14:36:20.115Z,32.47
2023-01-15T14:38:54.624Z,28.03
2023-01-15T14:41:29.275Z,27.03
2023-01-15T14:43:58.653Z,20.63
2023-01-15T14:46:32.936Z,21.50
2023-01-15T14:49:01.911Z,21.53
2023-01-15T14:51:33.859Z,18.47
2023-01-15T14:54:08.557Z,18.40
2023-01-15T14:56:38.690Z,20.57
2023-01-15T14:59:14.913Z,21.03
2023-01-15T15:01:53.036Z,46.00
2023-01-15T15:04:28.348Z,28.10
2023-01-15T15:06:58.954Z,22.50
2023-01-15T15:09:35.108Z,18.90
2023-01-15T15:12:21.530Z,21.43
2023-01-15T15:15:01.018Z,20.93
2023-01-15T15:17:38.689Z,20.80
2023-01-15T15:20:29.528Z,21.20
2023-01-15T15:23:04.983Z,22.90
2023-01-15T15:25:39.501Z,23.50
2023-01-15T15:28:13.943Z,22.40
2023-01-15T15:30:46.212Z,24.37
2023-01-15T15:33:19.201Z,23.33
2023-01-15T15:35:50.357Z,22.13
2023-01-15T15:38:21.214Z,24.03
2023-01-15T15:40:53.916Z,27.40
2023-01-15T15:43:45.443Z,41.63
2023-01-15T15:46:45.710Z,52.53
2023-01-15T15:49:14.077Z,47.80
2023-01-15T15:51:48.719Z,39.53
2023-01-15T15:54:21.272Z,31.97
2023-01-15T15:56:55.827Z,23.97
2023-01-15T15:59:35.771Z,20.10
2023-01-15T16:02:16.941Z,17.40
2023-01-15T16:04:49.600Z,16.37
2023-01-15T16:07:26.305Z,15.93
2023-01-15T16:09:59.068Z,15.87
2023-01-15T16:12:32.532Z,15.03
2023-01-15T16:15:02.292Z,18.10
2023-01-15T16:17:31.096Z,16.77
2023-01-15T16:20:00.223Z,16.67
2023-01-15T16:22:28.542Z,11.03
2023-01-15T16:24:58.782Z,9.53
2023-01-15T16:27:33.809Z,11.07
2023-01-15T16:30:02.369Z,13.17
2023-01-15T16:32:35.939Z,16.83
2023-01-15T16:35:08.552Z,15.43
2023-01-15T16:37:37.314Z,16.20
2023-01-15T16:40:07.910Z,13.23
2023-01-15T16:42:40.257Z,11.40
2023-01-15T16:45:21.360Z,14.90
2023-01-15T16:48:03.543Z,18.13
2023-01-15T16:50:32.981Z,20.63
2023-01-15T16:53:02.365Z,21.07
2023-01-15T16:55:44.894Z,22.33
2023-01-15T16:58:20.339Z,21.77
2023-01-15T17:00:50.983Z,23.13
2023-01-15T17:03:21.441Z,25.67
2023-01-15T17:05:52.240Z,28.27
2023-01-15T17:08:22.032Z,27.20
2023-01-15T17:10:55.421Z,27.43
2023-01-15T17:13:32.577Z,27.90
2023-01-15T17:16:17.206Z,33.57
2023-01-15T17:18:46.134Z,33.00
2023-01-15T17:21:21.666Z,34.60
2023-01-15T17:23:50.299Z,34.97
2023-01-15T17:26:21.276Z,31.13
2023-01-15T17:28:51.419Z,30.70
2023-01-15T17:31:25.890Z,30.47
2023-01-15T17:33:54.537Z,33.87
2023-01-15T17:36:23.271Z,34.13
2023-01-15T17:38:51.779Z,30.43
2023-01-15T17:41:21.825Z,26.57
2023-01-15T17:43:52.119Z,24.07
2023-01-15T17:46:20.610Z,21.93
2023-01-15T17:48:48.973Z,18.37
2023-01-15T17:51:19.544Z,14.90
2023-01-15T17:53:50.534Z,13.87
2023-01-15T17:56:36.313Z,18.03
2023-01-15T17:59:23.461Z,18.43
2023-01-15T18:02:09.385Z,24.67
2023-01-15T18:05:07.571Z,27.60
2023-01-15T18:07:41.872Z,19.43
2023-01-15T18:10:17.436Z,18.57
2023-01-15T18:12:45.849Z,18.90
2023-01-15T18:15:17.086Z,18.80
2023-01-15T18:17:45.765Z,18.03
2023-01-15T18:20:14.709Z,22.40
2023-01-15T18:22:43.063Z,22.00
2023-01-15T18:25:12.444Z,19.67
2023-01-15T18:27:43.611Z,37.67
2023-01-15T18:30:13.658Z,59.40
2023-01-15T18:32:44.433Z,48.37
2023-01-15T18:35:14.906Z,32.07
2023-01-15T18:37:43.520Z,25.40
2023-01-15T18:40:13.159Z,22.37
2023-01-15T18:42:59.160Z,17.13
2023-01-15T18:45:45.193Z,13.17
2023-01-15T18:48:15.090Z,14.10
2023-01-15T18:50:43.404Z,22.17
2023-01-15T18:53:13.337Z,27.30
2023-01-15T18:55:41.760Z,29.23
2023-01-15T18:58:10.012Z,27.50
2023-01-15T19:00:38.258Z,26.13
2023-01-15T19:03:06.502Z,21.10
2023-01-15T19:05:36.262Z,20.57
2023-01-15T19:08:04.491Z,18.97
2023-01-15T19:10:32.719Z,20.63
2023-01-15T19:13:03.097Z,19.77
2023-01-15T19:15:48.970Z,21.47
2023-01-15T19:18:34.636Z,20.50
2023-01-15T19:21:10.411Z,15.53
2023-01-15T19:23:38.719Z,13.60
2023-01-15T19:26:07.191Z,18.90
2023-01-15T19:28:35.518Z,20.23
2023-01-15T19:31:26.280Z,18.83
2023-01-15T19:34:13.113Z,17.57
2023-01-15T19:36:47.348Z,38.10
2023-01-15T19:39:17.638Z,40.13
2023-01-15T19:42:03.802Z,36.23
2023-01-15T19:44:49.388Z,28.50
2023-01-15T19:47:40.708Z,28.10
2023-01-15T19:50:21.634Z,22.77
2023-01-15T19:52:59.057Z,17.57
2023-01-15T19:55:29.374Z,24.30
2023-01-15T19:57:59.597Z,35.17
2023-01-15T20:00:29.031Z,31.10
2023-01-15T20:02:58.251Z,23.17
2023-01-15T20:05:28.166Z,25.20
2023-01-15T20:07:58.707Z,22.57
2023-01-15T20:10:28.922Z,17.37
2023-01-15T20:13:16.075Z,17.57
2023-01-15T20:15:46.763Z,16.03
2023-01-15T20:18:17.080Z,16.30
2023-01-15T20:20:45.558Z,13.17
2023-01-15T20:23:15.592Z,13.33
2023-01-15T20:25:47.359Z,13.67
2023-01-15T20:28:15.795Z,14.67
2023-01-15T20:30:44.246Z,16.90
2023-01-15T20:33:13.059Z,23.53
2023-01-15T20:35:41.936Z,19.03
2023-01-15T20:38:10.457Z,14.83
2023-01-15T20:40:40.156Z,12.53
2023-01-15T20:43:25.734Z,12.33
2023-01-15T20:45:56.402Z,33.50
2023-01-15T20:48:42.458Z,38.57
2023-01-15T20:51:15.015Z,29.67
2023-01-15T20:53:43.332Z,25.80
2023-01-15T20:56:17.044Z,22.93
2023-01-15T20:58:45.773Z,26.47
2023-01-15T21:01:15.070Z,34.77
2023-01-15T21:03:43.534Z,27.20
2023-01-15T21:06:12.187Z,18.73
2023-01-15T21:08:42.412Z,16.77
2023-01-15T21:11:10.766Z,18.67
2023-01-15T21:13:45.203Z,28.73
2023-01-15T21:16:15.689Z,27.70
2023-01-15T21:18:45.475Z,25.97
2023-01-15T21:21:15.797Z,24.33
2023-01-15T21:23:45.805Z,23.50
2023-01-15T21:26:15.592Z,20.07
2023-01-15T21:28:46.160Z,17.23
2023-01-15T21:31:15.827Z,14.20
2023-01-15T21:33:44.775Z,13.17
2023-01-15T21:36:14.697Z,11.80
2023-01-15T21:38:43.568Z,10.30
2023-01-15T21:41:13.485Z,10.20
2023-01-15T21:43:59.948Z,9.27
2023-01-15T21:46:29.989Z,8.33
2023-01-15T21:49:00.198Z,8.73
2023-01-15T21:51:28.802Z,8.67
2023-01-15T21:54:00.254Z,8.60
2023-01-15T21:56:30.481Z,8.17
2023-01-15T21:59:03.663Z,9.37
2023-01-15T22:01:33.717Z,6.50
2023-01-15T22:04:07.520Z,6.60
2023-01-15T22:06:37.905Z,7.80
2023-01-15T22:09:06.411Z,8.73
2023-01-15T22:11:44.780Z,9.70
2023-01-15T22:14:14.329Z,9.13
2023-01-15T22:16:44.793Z,11.00
2023-01-15T22:19:19.595Z,9.87
2023-01-15T22:21:49.182Z,8.77
2023-01-15T22:24:19.170Z,8.23
2023-01-15T22:26:53.818Z,10.77
2023-01-15T22:29:24.670Z,9.20
2023-01-15T22:31:57.071Z,8.93
2023-01-15T22:34:31.391Z,13.43
2023-01-15T22:36:59.958Z,10.13
2023-01-15T22:39:30.184Z,10.97
2023-01-15T22:42:16.297Z,11.83
2023-01-15T22:44:45.317Z,10.17
2023-01-15T22:47:14.994Z,9.37
2023-01-15T22:49:51.848Z,10.87
2023-01-15T22:52:20.838Z,12.03
2023-01-15T22:54:49.166Z,13.40
2023-01-15T22:57:17.640Z,10.20
2023-01-15T22:59:46.132Z,8.23
2023-01-15T23:02:16.012Z,10.40
2023-01-15T23:04:44.503Z,8.10
2023-01-15T23:07:13.043Z,9.33
2023-01-15T23:09:41.308Z,11.60
2023-01-15T23:12:10.024Z,9.50
2023-01-15T23:14:38.513Z,9.33
2023-01-15T23:17:06.944Z,7.43
2023-01-15T23:19:37.000Z,7.83
2023-01-15T23:22:10.049Z,10.53
2023-01-15T23:24:41.966Z,8.03
2023-01-15T23:27:25.713Z,8.00
2023-01-15T23:29:54.032Z,9.73
2023-01-15T23:32:22.325Z,7.77
2023-01-15T23:34:53.072Z,6.97
2023-01-15T23:37:21.394Z,8.10
2023-01-15T23:39:49.698Z,7.73
2023-01-15T23:42:44.723Z,7.53
2023-01-15T23:45:30.750Z,9.57
2023-01-15T23:47:59.390Z,8.50
2023-01-15T23:50:29.062Z,8.40
2023-01-15T23:52:57.342Z,8.97
2023-01-15T23:55:25.789Z,8.53
2023-01-15T23:57:54.154Z,8.70
